KOGA

Details ICAO KOGA
Name SEARLE FLD
Region United States
Timezone America/Denver (UTC-6.0)
Plans Departing 3
Arriving 4
Stats Elevation 3,278 ft / 999 m (AMSL)
Location 41.119805° -101.769492°
Runways 2
Magnetic Variation 6.441° E
Sunrise 2018-05-20 11:25:52 UTC / 2018-05-20 05:25:52 Local
Sunset 2018-05-21 02:04:13 UTC / 2018-05-20 20:04:13 Local
Advertisement - Login to hide

Runways

ID Width Length Bearing (true) Bearing (mag) Surface Threshold Offset Overrun Length
08 75 ft / 23 m 5,084 ft / 1,550 m 89.89° 83.45° Concrete 0 ft / 0 m 0 ft / 0 m
13 49 ft / 15 m 3,695 ft / 1,126 m 144.43° 137.99° Asphalt 0 ft / 0 m 0 ft / 0 m
26 75 ft / 23 m 5,084 ft / 1,550 m 269.91° 263.47° Concrete 0 ft / 0 m 0 ft / 0 m
31 49 ft / 15 m 3,695 ft / 1,126 m 324.43° 317.99° Asphalt 0 ft / 0 m 0 ft / 0 m

Map

Weather


0- 5 10 15 20 25 30 35+ Temperature / ° C

Clouds and Precipitation
Forecast for 2018-05-20 18:00 UTC. Updated 3 hours ago

Ground ~20,000 ft ~40,000 ft Winds

METAR

KOGA 202015Z AUTO 06008KT 10SM SCT050 OVC065 16/06 A3017 RMK AO2 T01600064

TAF

Not found

Frequencies

Recorded 121.27 MHz AWOS 3
Unicom 122.80 MHz CTAF/UNICOM
Warning: Do not use this data for real-world aviation or navigation. No guarantee of current accuracy is given.